sensor_id;sensor_type;location;lat;lon;timestamp;P1;durP1;ratioP1;P2;durP2;ratioP2
32172;SDS011;18679;45.190;5.722;2023-02-15T00:01:13;21.17;;;7.82;;
32172;SDS011;18679;45.190;5.722;2023-02-15T00:04:15;19.90;;;8.10;;
32172;SDS011;18679;45.190;5.722;2023-02-15T00:07:18;26.27;;;8.77;;
32172;SDS011;18679;45.190;5.722;2023-02-15T00:10:19;18.52;;;7.95;;
32172;SDS011;18679;45.190;5.722;2023-02-15T00:13:20;17.55;;;8.20;;
32172;SDS011;18679;45.190;5.722;2023-02-15T00:16:21;25.83;;;9.13;;
32172;SDS011;18679;45.190;5.722;2023-02-15T00:19:22;22.52;;;8.25;;
32172;SDS011;18679;45.190;5.722;2023-02-15T00:22:22;20.45;;;8.98;;
32172;SDS011;18679;45.190;5.722;2023-02-15T00:25:23;20.83;;;8.38;;
32172;SDS011;18679;45.190;5.722;2023-02-15T00:28:24;20.55;;;8.93;;
32172;SDS011;18679;45.190;5.722;2023-02-15T00:31:26;24.40;;;8.75;;
32172;SDS011;18679;45.190;5.722;2023-02-15T00:34:29;26.42;;;9.63;;
32172;SDS011;18679;45.190;5.722;2023-02-15T00:37:30;24.05;;;8.73;;
32172;SDS011;18679;45.190;5.722;2023-02-15T00:40:31;22.00;;;9.07;;
32172;SDS011;18679;45.190;5.722;2023-02-15T00:43:33;20.08;;;8.55;;
32172;SDS011;18679;45.190;5.722;2023-02-15T00:46:35;22.25;;;9.55;;
32172;SDS011;18679;45.190;5.722;2023-02-15T00:49:36;18.17;;;8.23;;
32172;SDS011;18679;45.190;5.722;2023-02-15T00:52:37;21.48;;;8.88;;
32172;SDS011;18679;45.190;5.722;2023-02-15T00:55:38;29.90;;;9.65;;
32172;SDS011;18679;45.190;5.722;2023-02-15T00:58:40;21.95;;;8.82;;
32172;SDS011;18679;45.190;5.722;2023-02-15T01:01:43;23.10;;;8.00;;
32172;SDS011;18679;45.190;5.722;2023-02-15T01:04:43;21.48;;;8.30;;
32172;SDS011;18679;45.190;5.722;2023-02-15T01:07:44;22.58;;;7.53;;
32172;SDS011;18679;45.190;5.722;2023-02-15T01:10:45;17.90;;;8.68;;
32172;SDS011;18679;45.190;5.722;2023-02-15T01:13:51;17.52;;;7.60;;
32172;SDS011;18679;45.190;5.722;2023-02-15T01:16:53;19.98;;;8.05;;
32172;SDS011;18679;45.190;5.722;2023-02-15T01:19:54;21.63;;;9.13;;
32172;SDS011;18679;45.190;5.722;2023-02-15T01:22:57;23.25;;;9.02;;
32172;SDS011;18679;45.190;5.722;2023-02-15T01:26:01;25.27;;;9.13;;
32172;SDS011;18679;45.190;5.722;2023-02-15T01:29:02;27.45;;;9.90;;
32172;SDS011;18679;45.190;5.722;2023-02-15T01:32:03;19.77;;;9.60;;
32172;SDS011;18679;45.190;5.722;2023-02-15T01:35:04;24.35;;;9.52;;
32172;SDS011;18679;45.190;5.722;2023-02-15T01:38:06;23.15;;;9.35;;
32172;SDS011;18679;45.190;5.722;2023-02-15T01:41:07;21.85;;;8.98;;
32172;SDS011;18679;45.190;5.722;2023-02-15T01:47:52;20.58;;;8.98;;
32172;SDS011;18679;45.190;5.722;2023-02-15T01:50:59;19.00;;;7.55;;
32172;SDS011;18679;45.190;5.722;2023-02-15T01:54:06;22.52;;;8.25;;
32172;SDS011;18679;45.190;5.722;2023-02-15T01:57:30;21.30;;;9.40;;
32172;SDS011;18679;45.190;5.722;2023-02-15T02:00:31;21.05;;;8.35;;
32172;SDS011;18679;45.190;5.722;2023-02-15T02:07:05;16.38;;;7.55;;
32172;SDS011;18679;45.190;5.722;2023-02-15T02:10:08;22.08;;;7.45;;
32172;SDS011;18679;45.190;5.722;2023-02-15T02:13:10;26.58;;;7.60;;
32172;SDS011;18679;45.190;5.722;2023-02-15T02:26:21;21.08;;;7.55;;
32172;SDS011;18679;45.190;5.722;2023-02-15T02:33:27;21.23;;;7.20;;
32172;SDS011;18679;45.190;5.722;2023-02-15T02:43:38;15.68;;;6.38;;
32172;SDS011;18679;45.190;5.722;2023-02-15T02:47:01;13.88;;;7.03;;
32172;SDS011;18679;45.190;5.722;2023-02-15T02:50:10;20.15;;;6.38;;
32172;SDS011;18679;45.190;5.722;2023-02-15T02:53:15;17.73;;;6.35;;
32172;SDS011;18679;45.190;5.722;2023-02-15T02:59:25;17.63;;;6.28;;
32172;SDS011;18679;45.190;5.722;2023-02-15T03:02:32;11.20;;;5.27;;
32172;SDS011;18679;45.190;5.722;2023-02-15T03:05:39;24.27;;;7.30;;
32172;SDS011;18679;45.190;5.722;2023-02-15T03:08:45;19.88;;;7.13;;
32172;SDS011;18679;45.190;5.722;2023-02-15T03:11:50;17.63;;;7.40;;
32172;SDS011;18679;45.190;5.722;2023-02-15T03:15:10;19.70;;;8.05;;
32172;SDS011;18679;45.190;5.722;2023-02-15T03:18:16;20.02;;;8.57;;
32172;SDS011;18679;45.190;5.722;2023-02-15T03:21:21;22.90;;;9.10;;
32172;SDS011;18679;45.190;5.722;2023-02-15T03:24:44;22.13;;;9.45;;
32172;SDS011;18679;45.190;5.722;2023-02-15T03:27:55;19.08;;;8.10;;
32172;SDS011;18679;45.190;5.722;2023-02-15T03:31:04;25.95;;;8.90;;
32172;SDS011;18679;45.190;5.722;2023-02-15T03:34:10;23.23;;;7.90;;
32172;SDS011;18679;45.190;5.722;2023-02-15T03:37:16;25.52;;;9.60;;
32172;SDS011;18679;45.190;5.722;2023-02-15T03:40:28;21.45;;;8.02;;
32172;SDS011;18679;45.190;5.722;2023-02-15T03:43:54;23.60;;;9.13;;
32172;SDS011;18679;45.190;5.722;2023-02-15T03:47:06;18.25;;;8.38;;
32172;SDS011;18679;45.190;5.722;2023-02-15T03:50:15;27.25;;;7.57;;
32172;SDS011;18679;45.190;5.722;2023-02-15T03:53:54;17.45;;;8.05;;
32172;SDS011;18679;45.190;5.722;2023-02-15T03:56:57;16.85;;;6.90;;
32172;SDS011;18679;45.190;5.722;2023-02-15T04:00:17;21.88;;;7.85;;
32172;SDS011;18679;45.190;5.722;2023-02-15T04:03:57;22.50;;;7.30;;
32172;SDS011;18679;45.190;5.722;2023-02-15T04:07:04;18.92;;;7.05;;
32172;SDS011;18679;45.190;5.722;2023-02-15T04:10:06;20.05;;;7.85;;
32172;SDS011;18679;45.190;5.722;2023-02-15T04:13:30;16.83;;;6.97;;
32172;SDS011;18679;45.190;5.722;2023-02-15T04:16:32;19.77;;;7.85;;
32172;SDS011;18679;45.190;5.722;2023-02-15T04:19:32;16.52;;;5.60;;
32172;SDS011;18679;45.190;5.722;2023-02-15T04:22:52;13.52;;;7.05;;
32172;SDS011;18679;45.190;5.722;2023-02-15T04:26:11;13.65;;;6.30;;
32172;SDS011;18679;45.190;5.722;2023-02-15T04:29:12;19.20;;;7.13;;
32172;SDS011;18679;45.190;5.722;2023-02-15T04:32:13;18.05;;;7.75;;
32172;SDS011;18679;45.190;5.722;2023-02-15T04:35:13;24.15;;;8.90;;
32172;SDS011;18679;45.190;5.722;2023-02-15T04:38:15;23.35;;;8.13;;
32172;SDS011;18679;45.190;5.722;2023-02-15T04:41:15;21.83;;;8.05;;
32172;SDS011;18679;45.190;5.722;2023-02-15T04:44:16;25.88;;;7.55;;
32172;SDS011;18679;45.190;5.722;2023-02-15T04:47:17;28.83;;;8.80;;
32172;SDS011;18679;45.190;5.722;2023-02-15T04:50:18;18.88;;;7.45;;
32172;SDS011;18679;45.190;5.722;2023-02-15T04:53:19;11.82;;;6.10;;
32172;SDS011;18679;45.190;5.722;2023-02-15T04:56:20;18.90;;;7.53;;
32172;SDS011;18679;45.190;5.722;2023-02-15T04:59:21;16.40;;;6.47;;
32172;SDS011;18679;45.190;5.722;2023-02-15T05:02:22;16.92;;;6.35;;
32172;SDS011;18679;45.190;5.722;2023-02-15T05:05:23;16.08;;;6.57;;
32172;SDS011;18679;45.190;5.722;2023-02-15T05:08:23;16.13;;;7.18;;
32172;SDS011;18679;45.190;5.722;2023-02-15T05:11:25;17.20;;;6.85;;
32172;SDS011;18679;45.190;5.722;2023-02-15T05:14:26;18.70;;;5.85;;
32172;SDS011;18679;45.190;5.722;2023-02-15T05:17:27;13.77;;;6.35;;
32172;SDS011;18679;45.190;5.722;2023-02-15T05:20:28;11.90;;;5.85;;
32172;SDS011;18679;45.190;5.722;2023-02-15T05:23:29;16.65;;;6.90;;
32172;SDS011;18679;45.190;5.722;2023-02-15T05:26:30;19.25;;;6.90;;
32172;SDS011;18679;45.190;5.722;2023-02-15T05:29:49;15.98;;;7.05;;
32172;SDS011;18679;45.190;5.722;2023-02-15T05:32:50;20.60;;;6.80;;
32172;SDS011;18679;45.190;5.722;2023-02-15T05:35:51;20.77;;;6.30;;
32172;SDS011;18679;45.190;5.722;2023-02-15T05:38:52;14.13;;;6.95;;
32172;SDS011;18679;45.190;5.722;2023-02-15T05:41:52;13.93;;;6.35;;
32172;SDS011;18679;45.190;5.722;2023-02-15T05:44:53;13.82;;;5.60;;
32172;SDS011;18679;45.190;5.722;2023-02-15T05:47:54;15.77;;;6.63;;
32172;SDS011;18679;45.190;5.722;2023-02-15T05:51:03;9.63;;;5.20;;
32172;SDS011;18679;45.190;5.722;2023-02-15T05:54:09;11.38;;;5.57;;
32172;SDS011;18679;45.190;5.722;2023-02-15T05:57:10;17.00;;;6.07;;
32172;SDS011;18679;45.190;5.722;2023-02-15T06:00:11;21.10;;;6.65;;
32172;SDS011;18679;45.190;5.722;2023-02-15T06:03:12;17.38;;;7.53;;
32172;SDS011;18679;45.190;5.722;2023-02-15T06:06:14;18.10;;;7.13;;
32172;SDS011;18679;45.190;5.722;2023-02-15T06:09:15;13.77;;;7.25;;
32172;SDS011;18679;45.190;5.722;2023-02-15T06:12:18;18.90;;;8.23;;
32172;SDS011;18679;45.190;5.722;2023-02-15T06:15:19;17.70;;;6.85;;
32172;SDS011;18679;45.190;5.722;2023-02-15T06:18:20;21.42;;;7.30;;
32172;SDS011;18679;45.190;5.722;2023-02-15T06:21:21;16.77;;;7.53;;
32172;SDS011;18679;45.190;5.722;2023-02-15T06:24:22;18.63;;;7.68;;
32172;SDS011;18679;45.190;5.722;2023-02-15T06:27:23;15.55;;;6.78;;
32172;SDS011;18679;45.190;5.722;2023-02-15T06:30:23;19.13;;;7.70;;
32172;SDS011;18679;45.190;5.722;2023-02-15T06:33:24;19.33;;;7.72;;
32172;SDS011;18679;45.190;5.722;2023-02-15T06:36:25;18.88;;;6.93;;
32172;SDS011;18679;45.190;5.722;2023-02-15T06:39:29;17.30;;;7.13;;
32172;SDS011;18679;45.190;5.722;2023-02-15T06:42:30;15.10;;;7.07;;
32172;SDS011;18679;45.190;5.722;2023-02-15T06:45:31;15.10;;;7.05;;
32172;SDS011;18679;45.190;5.722;2023-02-15T06:48:32;17.88;;;7.93;;
32172;SDS011;18679;45.190;5.722;2023-02-15T06:51:36;14.25;;;6.25;;
32172;SDS011;18679;45.190;5.722;2023-02-15T06:54:37;17.83;;;6.75;;
32172;SDS011;18679;45.190;5.722;2023-02-15T06:57:38;21.15;;;7.32;;
32172;SDS011;18679;45.190;5.722;2023-02-15T07:00:38;20.48;;;6.93;;
32172;SDS011;18679;45.190;5.722;2023-02-15T07:03:39;15.50;;;6.85;;
32172;SDS011;18679;45.190;5.722;2023-02-15T07:06:40;20.65;;;6.80;;
32172;SDS011;18679;45.190;5.722;2023-02-15T07:09:41;13.55;;;6.00;;
32172;SDS011;18679;45.190;5.722;2023-02-15T07:12:42;18.02;;;5.85;;
32172;SDS011;18679;45.190;5.722;2023-02-15T07:15:44;18.10;;;7.13;;
32172;SDS011;18679;45.190;5.722;2023-02-15T07:18:46;18.75;;;7.07;;
32172;SDS011;18679;45.190;5.722;2023-02-15T07:21:47;20.50;;;6.78;;
32172;SDS011;18679;45.190;5.722;2023-02-15T07:24:48;22.70;;;6.97;;
32172;SDS011;18679;45.190;5.722;2023-02-15T07:27:54;13.52;;;6.00;;
32172;SDS011;18679;45.190;5.722;2023-02-15T07:31:01;21.67;;;8.10;;
32172;SDS011;18679;45.190;5.722;2023-02-15T07:34:03;20.02;;;5.75;;
32172;SDS011;18679;45.190;5.722;2023-02-15T07:37:07;12.20;;;5.60;;
32172;SDS011;18679;45.190;5.722;2023-02-15T07:40:08;17.20;;;7.88;;
32172;SDS011;18679;45.190;5.722;2023-02-15T07:43:09;24.58;;;7.60;;
32172;SDS011;18679;45.190;5.722;2023-02-15T07:46:11;28.35;;;7.13;;
32172;SDS011;18679;45.190;5.722;2023-02-15T07:49:13;16.40;;;6.82;;
32172;SDS011;18679;45.190;5.722;2023-02-15T07:52:14;15.45;;;7.47;;
32172;SDS011;18679;45.190;5.722;2023-02-15T07:55:15;15.20;;;7.80;;
32172;SDS011;18679;45.190;5.722;2023-02-15T07:58:16;22.73;;;7.95;;
32172;SDS011;18679;45.190;5.722;2023-02-15T08:01:21;17.38;;;7.75;;
32172;SDS011;18679;45.190;5.722;2023-02-15T08:04:24;14.55;;;6.80;;
32172;SDS011;18679;45.190;5.722;2023-02-15T08:07:25;16.92;;;6.80;;
32172;SDS011;18679;45.190;5.722;2023-02-15T08:10:26;19.77;;;7.10;;
32172;SDS011;18679;45.190;5.722;2023-02-15T08:13:48;12.82;;;6.75;;
32172;SDS011;18679;45.190;5.722;2023-02-15T08:16:58;16.38;;;7.05;;
32172;SDS011;18679;45.190;5.722;2023-02-15T08:20:02;19.70;;;6.35;;
32172;SDS011;18679;45.190;5.722;2023-02-15T08:23:03;15.45;;;7.13;;
32172;SDS011;18679;45.190;5.722;2023-02-15T08:26:04;24.52;;;7.82;;
32172;SDS011;18679;45.190;5.722;2023-02-15T08:29:05;20.63;;;6.85;;
32172;SDS011;18679;45.190;5.722;2023-02-15T08:32:08;15.18;;;6.45;;
32172;SDS011;18679;45.190;5.722;2023-02-15T08:35:10;14.98;;;5.95;;
32172;SDS011;18679;45.190;5.722;2023-02-15T08:38:11;20.15;;;7.05;;
32172;SDS011;18679;45.190;5.722;2023-02-15T08:41:16;16.73;;;6.72;;
32172;SDS011;18679;45.190;5.722;2023-02-15T08:44:22;28.42;;;6.68;;
32172;SDS011;18679;45.190;5.722;2023-02-15T08:47:23;21.23;;;8.30;;
32172;SDS011;18679;45.190;5.722;2023-02-15T08:50:23;21.95;;;8.07;;
32172;SDS011;18679;45.190;5.722;2023-02-15T08:53:24;17.10;;;7.60;;
32172;SDS011;18679;45.190;5.722;2023-02-15T08:56:29;20.90;;;7.47;;
32172;SDS011;18679;45.190;5.722;2023-02-15T08:59:34;18.33;;;7.40;;
32172;SDS011;18679;45.190;5.722;2023-02-15T09:02:36;22.73;;;7.80;;
32172;SDS011;18679;45.190;5.722;2023-02-15T09:05:37;23.50;;;8.48;;
32172;SDS011;18679;45.190;5.722;2023-02-15T09:08:38;26.15;;;8.02;;
32172;SDS011;18679;45.190;5.722;2023-02-15T09:11:40;18.45;;;7.70;;
32172;SDS011;18679;45.190;5.722;2023-02-15T09:14:43;17.42;;;7.57;;
32172;SDS011;18679;45.190;5.722;2023-02-15T09:17:44;20.23;;;7.85;;
32172;SDS011;18679;45.190;5.722;2023-02-15T09:20:45;17.50;;;7.90;;
32172;SDS011;18679;45.190;5.722;2023-02-15T09:23:46;17.50;;;7.43;;
32172;SDS011;18679;45.190;5.722;2023-02-15T09:26:49;17.67;;;7.60;;
32172;SDS011;18679;45.190;5.722;2023-02-15T09:29:50;23.75;;;7.60;;
32172;SDS011;18679;45.190;5.722;2023-02-15T09:32:51;16.95;;;7.28;;
32172;SDS011;18679;45.190;5.722;2023-02-15T09:35:52;19.92;;;8.32;;
32172;SDS011;18679;45.190;5.722;2023-02-15T09:39:01;17.70;;;6.78;;
32172;SDS011;18679;45.190;5.722;2023-02-15T09:45:45;14.13;;;6.10;;
32172;SDS011;18679;45.190;5.722;2023-02-15T09:49:12;19.70;;;8.27;;
32172;SDS011;18679;45.190;5.722;2023-02-15T09:52:35;22.35;;;9.02;;
32172;SDS011;18679;45.190;5.722;2023-02-15T09:55:51;32.10;;;10.30;;
32172;SDS011;18679;45.190;5.722;2023-02-15T09:59:14;18.15;;;8.27;;
32172;SDS011;18679;45.190;5.722;2023-02-15T10:19:08;15.02;;;7.13;;
32172;SDS011;18679;45.190;5.722;2023-02-15T10:26:11;17.48;;;6.75;;
32172;SDS011;18679;45.190;5.722;2023-02-15T10:29:23;18.48;;;6.88;;
32172;SDS011;18679;45.190;5.722;2023-02-15T10:32:53;20.65;;;7.93;;
32172;SDS011;18679;45.190;5.722;2023-02-15T10:53:15;12.85;;;6.03;;
32172;SDS011;18679;45.190;5.722;2023-02-15T11:02:45;12.35;;;6.22;;
32172;SDS011;18679;45.190;5.722;2023-02-15T11:06:07;14.43;;;6.32;;
32172;SDS011;18679;45.190;5.722;2023-02-15T11:09:13;11.38;;;5.57;;
32172;SDS011;18679;45.190;5.722;2023-02-15T11:12:22;14.18;;;6.22;;
32172;SDS011;18679;45.190;5.722;2023-02-15T11:18:37;13.75;;;6.78;;
32172;SDS011;18679;45.190;5.722;2023-02-15T11:21:45;15.57;;;6.63;;
32172;SDS011;18679;45.190;5.722;2023-02-15T11:24:50;12.23;;;6.53;;
32172;SDS011;18679;45.190;5.722;2023-02-15T11:27:52;25.95;;;6.53;;
32172;SDS011;18679;45.190;5.722;2023-02-15T11:30:55;16.20;;;6.57;;
32172;SDS011;18679;45.190;5.722;2023-02-15T11:33:58;14.85;;;7.30;;
32172;SDS011;18679;45.190;5.722;2023-02-15T11:37:06;15.73;;;7.13;;
32172;SDS011;18679;45.190;5.722;2023-02-15T11:40:15;19.83;;;7.77;;
32172;SDS011;18679;45.190;5.722;2023-02-15T11:43:27;19.48;;;8.48;;
32172;SDS011;18679;45.190;5.722;2023-02-15T11:46:29;16.77;;;8.52;;
32172;SDS011;18679;45.190;5.722;2023-02-15T11:49:31;26.80;;;10.23;;
32172;SDS011;18679;45.190;5.722;2023-02-15T11:52:33;21.90;;;10.02;;
32172;SDS011;18679;45.190;5.722;2023-02-15T11:55:34;18.85;;;8.98;;
32172;SDS011;18679;45.190;5.722;2023-02-15T11:58:46;18.63;;;9.10;;
32172;SDS011;18679;45.190;5.722;2023-02-15T12:01:51;24.65;;;9.73;;
32172;SDS011;18679;45.190;5.722;2023-02-15T12:04:54;26.35;;;10.20;;
32172;SDS011;18679;45.190;5.722;2023-02-15T12:08:02;33.92;;;10.45;;
32172;SDS011;18679;45.190;5.722;2023-02-15T12:11:11;26.70;;;9.82;;
32172;SDS011;18679;45.190;5.722;2023-02-15T12:14:17;25.25;;;11.00;;
32172;SDS011;18679;45.190;5.722;2023-02-15T12:17:20;25.40;;;10.45;;
32172;SDS011;18679;45.190;5.722;2023-02-15T12:23:24;23.17;;;10.10;;
32172;SDS011;18679;45.190;5.722;2023-02-15T12:26:29;28.08;;;8.25;;
32172;SDS011;18679;45.190;5.722;2023-02-15T12:29:41;20.85;;;8.20;;
32172;SDS011;18679;45.190;5.722;2023-02-15T12:32:47;21.60;;;8.32;;
32172;SDS011;18679;45.190;5.722;2023-02-15T12:36:02;24.50;;;9.13;;
32172;SDS011;18679;45.190;5.722;2023-02-15T12:42:16;27.63;;;11.27;;
32172;SDS011;18679;45.190;5.722;2023-02-15T12:45:21;28.10;;;11.10;;
32172;SDS011;18679;45.190;5.722;2023-02-15T12:48:24;24.48;;;10.57;;
32172;SDS011;18679;45.190;5.722;2023-02-15T12:51:25;26.67;;;10.88;;
32172;SDS011;18679;45.190;5.722;2023-02-15T12:54:35;24.25;;;10.27;;
32172;SDS011;18679;45.190;5.722;2023-02-15T12:57:42;27.75;;;9.82;;
32172;SDS011;18679;45.190;5.722;2023-02-15T13:00:47;22.85;;;9.82;;
32172;SDS011;18679;45.190;5.722;2023-02-15T13:03:56;25.55;;;8.90;;
32172;SDS011;18679;45.190;5.722;2023-02-15T13:06:58;16.50;;;8.27;;
32172;SDS011;18679;45.190;5.722;2023-02-15T13:10:03;22.75;;;8.45;;
32172;SDS011;18679;45.190;5.722;2023-02-15T13:13:10;17.52;;;8.07;;
32172;SDS011;18679;45.190;5.722;2023-02-15T13:16:19;23.38;;;7.78;;
32172;SDS011;18679;45.190;5.722;2023-02-15T13:19:45;20.15;;;7.60;;
32172;SDS011;18679;45.190;5.722;2023-02-15T13:22:50;16.67;;;7.55;;
32172;SDS011;18679;45.190;5.722;2023-02-15T13:25:58;13.40;;;5.93;;
32172;SDS011;18679;45.190;5.722;2023-02-15T13:29:06;19.23;;;6.38;;
32172;SDS011;18679;45.190;5.722;2023-02-15T13:32:26;13.63;;;5.88;;
32172;SDS011;18679;45.190;5.722;2023-02-15T13:35:39;14.95;;;5.93;;
32172;SDS011;18679;45.190;5.722;2023-02-15T13:50:01;11.43;;;4.97;;
32172;SDS011;18679;45.190;5.722;2023-02-15T13:56:46;14.98;;;6.57;;
32172;SDS011;18679;45.190;5.722;2023-02-15T14:00:22;14.70;;;6.85;;
32172;SDS011;18679;45.190;5.722;2023-02-15T14:03:37;12.88;;;5.75;;
32172;SDS011;18679;45.190;5.722;2023-02-15T14:16:48;12.70;;;5.22;;
32172;SDS011;18679;45.190;5.722;2023-02-15T14:23:52;14.38;;;5.47;;
32172;SDS011;18679;45.190;5.722;2023-02-15T14:29:59;10.60;;;5.05;;
32172;SDS011;18679;45.190;5.722;2023-02-15T14:33:28;20.20;;;5.55;;
32172;SDS011;18679;45.190;5.722;2023-02-15T14:36:35;10.38;;;5.15;;
32172;SDS011;18679;45.190;5.722;2023-02-15T14:43:38;18.08;;;4.95;;
32172;SDS011;18679;45.190;5.722;2023-02-15T14:47:04;19.67;;;4.95;;
32172;SDS011;18679;45.190;5.722;2023-02-15T14:53:38;21.08;;;6.50;;
32172;SDS011;18679;45.190;5.722;2023-02-15T14:56:39;13.60;;;5.68;;
32172;SDS011;18679;45.190;5.722;2023-02-15T15:02:58;15.15;;;6.03;;
32172;SDS011;18679;45.190;5.722;2023-02-15T15:06:02;11.30;;;5.63;;
32172;SDS011;18679;45.190;5.722;2023-02-15T15:24:58;12.30;;;5.68;;
32172;SDS011;18679;45.190;5.722;2023-02-15T15:28:05;14.65;;;5.65;;
32172;SDS011;18679;45.190;5.722;2023-02-15T15:31:24;25.55;;;5.85;;
32172;SDS011;18679;45.190;5.722;2023-02-15T15:51:39;14.50;;;4.95;;
32172;SDS011;18679;45.190;5.722;2023-02-15T15:54:42;10.48;;;4.93;;
32172;SDS011;18679;45.190;5.722;2023-02-15T15:57:45;13.45;;;5.60;;
32172;SDS011;18679;45.190;5.722;2023-02-15T16:00:50;10.07;;;5.22;;
32172;SDS011;18679;45.190;5.722;2023-02-15T16:03:58;15.50;;;5.95;;
32172;SDS011;18679;45.190;5.722;2023-02-15T16:10:22;13.10;;;6.32;;
32172;SDS011;18679;45.190;5.722;2023-02-15T16:13:25;16.52;;;6.30;;
32172;SDS011;18679;45.190;5.722;2023-02-15T16:16:27;17.67;;;5.43;;
32172;SDS011;18679;45.190;5.722;2023-02-15T16:19:34;12.85;;;5.63;;
32172;SDS011;18679;45.190;5.722;2023-02-15T16:22:38;15.35;;;6.30;;
32172;SDS011;18679;45.190;5.722;2023-02-15T16:28:54;12.85;;;6.22;;
32172;SDS011;18679;45.190;5.722;2023-02-15T16:31:59;13.70;;;6.60;;
32172;SDS011;18679;45.190;5.722;2023-02-15T16:35:01;16.50;;;7.00;;
32172;SDS011;18679;45.190;5.722;2023-02-15T16:38:03;17.23;;;6.60;;
32172;SDS011;18679;45.190;5.722;2023-02-15T16:41:04;16.33;;;6.05;;
32172;SDS011;18679;45.190;5.722;2023-02-15T16:44:06;15.25;;;6.97;;
32172;SDS011;18679;45.190;5.722;2023-02-15T16:50:23;16.92;;;6.60;;
32172;SDS011;18679;45.190;5.722;2023-02-15T16:53:28;27.02;;;6.20;;
32172;SDS011;18679;45.190;5.722;2023-02-15T16:56:30;14.90;;;6.80;;
32172;SDS011;18679;45.190;5.722;2023-02-15T17:02:35;15.07;;;5.75;;
32172;SDS011;18679;45.190;5.722;2023-02-15T17:08:42;14.85;;;5.65;;
32172;SDS011;18679;45.190;5.722;2023-02-15T17:11:44;21.90;;;7.43;;
32172;SDS011;18679;45.190;5.722;2023-02-15T17:14:45;17.13;;;6.28;;
32172;SDS011;18679;45.190;5.722;2023-02-15T17:17:46;13.20;;;6.45;;
32172;SDS011;18679;45.190;5.722;2023-02-15T17:20:48;12.93;;;5.97;;
32172;SDS011;18679;45.190;5.722;2023-02-15T17:23:51;13.93;;;6.05;;
32172;SDS011;18679;45.190;5.722;2023-02-15T17:27:01;15.75;;;6.70;;
32172;SDS011;18679;45.190;5.722;2023-02-15T17:30:13;12.25;;;5.68;;
32172;SDS011;18679;45.190;5.722;2023-02-15T17:36:30;14.73;;;6.72;;
32172;SDS011;18679;45.190;5.722;2023-02-15T17:39:31;18.38;;;6.95;;
32172;SDS011;18679;45.190;5.722;2023-02-15T17:42:32;15.43;;;6.45;;
32172;SDS011;18679;45.190;5.722;2023-02-15T17:45:35;16.33;;;6.28;;
32172;SDS011;18679;45.190;5.722;2023-02-15T17:48:40;13.70;;;7.10;;
32172;SDS011;18679;45.190;5.722;2023-02-15T17:51:41;16.40;;;7.18;;
32172;SDS011;18679;45.190;5.722;2023-02-15T17:54:42;17.13;;;7.30;;
32172;SDS011;18679;45.190;5.722;2023-02-15T17:58:03;16.40;;;7.47;;
32172;SDS011;18679;45.190;5.722;2023-02-15T18:01:11;16.52;;;6.85;;
32172;SDS011;18679;45.190;5.722;2023-02-15T18:04:36;22.23;;;7.00;;
32172;SDS011;18679;45.190;5.722;2023-02-15T18:07:55;21.33;;;7.57;;
32172;SDS011;18679;45.190;5.722;2023-02-15T18:11:15;12.48;;;5.85;;
32172;SDS011;18679;45.190;5.722;2023-02-15T18:14:37;18.60;;;7.53;;
32172;SDS011;18679;45.190;5.722;2023-02-15T18:20:41;21.15;;;7.38;;
32172;SDS011;18679;45.190;5.722;2023-02-15T18:23:42;32.47;;;7.45;;
32172;SDS011;18679;45.190;5.722;2023-02-15T18:26:43;20.45;;;8.57;;
32172;SDS011;18679;45.190;5.722;2023-02-15T18:29:44;31.55;;;10.00;;
32172;SDS011;18679;45.190;5.722;2023-02-15T18:32:45;25.60;;;9.10;;
32172;SDS011;18679;45.190;5.722;2023-02-15T18:35:50;18.83;;;9.13;;
32172;SDS011;18679;45.190;5.722;2023-02-15T18:38:51;34.70;;;9.20;;
32172;SDS011;18679;45.190;5.722;2023-02-15T18:41:53;22.45;;;7.65;;
32172;SDS011;18679;45.190;5.722;2023-02-15T18:44:55;20.65;;;8.15;;
32172;SDS011;18679;45.190;5.722;2023-02-15T18:48:03;23.50;;;8.35;;
32172;SDS011;18679;45.190;5.722;2023-02-15T18:51:14;22.00;;;8.85;;
32172;SDS011;18679;45.190;5.722;2023-02-15T18:54:18;27.83;;;10.43;;
32172;SDS011;18679;45.190;5.722;2023-02-15T18:57:22;30.55;;;11.50;;
32172;SDS011;18679;45.190;5.722;2023-02-15T19:00:27;29.90;;;10.02;;
32172;SDS011;18679;45.190;5.722;2023-02-15T19:03:31;30.50;;;9.68;;
32172;SDS011;18679;45.190;5.722;2023-02-15T19:06:32;23.10;;;7.97;;
32172;SDS011;18679;45.190;5.722;2023-02-15T19:09:33;26.02;;;7.63;;
32172;SDS011;18679;45.190;5.722;2023-02-15T19:12:34;27.80;;;7.93;;
32172;SDS011;18679;45.190;5.722;2023-02-15T19:15:35;26.13;;;8.43;;
32172;SDS011;18679;45.190;5.722;2023-02-15T19:18:36;15.25;;;6.75;;
32172;SDS011;18679;45.190;5.722;2023-02-15T19:21:37;22.23;;;6.95;;
32172;SDS011;18679;45.190;5.722;2023-02-15T19:24:39;14.70;;;6.50;;
32172;SDS011;18679;45.190;5.722;2023-02-15T19:27:43;18.42;;;7.43;;
32172;SDS011;18679;45.190;5.722;2023-02-15T19:30:45;25.05;;;8.02;;
32172;SDS011;18679;45.190;5.722;2023-02-15T19:33:46;22.33;;;7.18;;
32172;SDS011;18679;45.190;5.722;2023-02-15T19:36:48;21.67;;;7.03;;
32172;SDS011;18679;45.190;5.722;2023-02-15T19:39:51;14.98;;;6.45;;
32172;SDS011;18679;45.190;5.722;2023-02-15T19:42:52;17.38;;;7.07;;
32172;SDS011;18679;45.190;5.722;2023-02-15T19:45:54;13.07;;;6.63;;
32172;SDS011;18679;45.190;5.722;2023-02-15T19:48:55;23.48;;;8.20;;
32172;SDS011;18679;45.190;5.722;2023-02-15T19:51:56;21.75;;;8.38;;
32172;SDS011;18679;45.190;5.722;2023-02-15T19:54:58;22.05;;;8.63;;
32172;SDS011;18679;45.190;5.722;2023-02-15T19:58:00;22.90;;;7.10;;
32172;SDS011;18679;45.190;5.722;2023-02-15T20:01:01;25.42;;;8.05;;
32172;SDS011;18679;45.190;5.722;2023-02-15T20:04:02;22.05;;;7.63;;
32172;SDS011;18679;45.190;5.722;2023-02-15T20:07:03;23.95;;;7.68;;
32172;SDS011;18679;45.190;5.722;2023-02-15T20:13:21;16.10;;;6.25;;
32172;SDS011;18679;45.190;5.722;2023-02-15T20:16:22;15.23;;;6.72;;
32172;SDS011;18679;45.190;5.722;2023-02-15T20:19:25;17.20;;;6.65;;
32172;SDS011;18679;45.190;5.722;2023-02-15T20:22:26;12.85;;;5.75;;
32172;SDS011;18679;45.190;5.722;2023-02-15T20:25:28;24.40;;;6.70;;
32172;SDS011;18679;45.190;5.722;2023-02-15T20:28:32;17.33;;;6.50;;
32172;SDS011;18679;45.190;5.722;2023-02-15T20:31:33;15.27;;;7.03;;
32172;SDS011;18679;45.190;5.722;2023-02-15T20:34:34;14.38;;;6.85;;
32172;SDS011;18679;45.190;5.722;2023-02-15T20:37:35;15.05;;;7.07;;
32172;SDS011;18679;45.190;5.722;2023-02-15T20:40:36;17.40;;;6.20;;
32172;SDS011;18679;45.190;5.722;2023-02-15T20:43:57;13.57;;;6.43;;
32172;SDS011;18679;45.190;5.722;2023-02-15T20:46:58;19.67;;;7.20;;
32172;SDS011;18679;45.190;5.722;2023-02-15T20:50:00;19.13;;;7.55;;
32172;SDS011;18679;45.190;5.722;2023-02-15T20:53:01;17.33;;;7.32;;
32172;SDS011;18679;45.190;5.722;2023-02-15T20:56:02;17.15;;;7.20;;
32172;SDS011;18679;45.190;5.722;2023-02-15T20:59:05;15.60;;;6.97;;
32172;SDS011;18679;45.190;5.722;2023-02-15T21:02:20;17.92;;;7.93;;
32172;SDS011;18679;45.190;5.722;2023-02-15T21:05:31;15.75;;;7.15;;
32172;SDS011;18679;45.190;5.722;2023-02-15T21:08:32;17.73;;;7.32;;
32172;SDS011;18679;45.190;5.722;2023-02-15T21:11:34;21.60;;;8.82;;
32172;SDS011;18679;45.190;5.722;2023-02-15T21:14:35;18.83;;;8.50;;
32172;SDS011;18679;45.190;5.722;2023-02-15T21:17:37;19.35;;;7.82;;
32172;SDS011;18679;45.190;5.722;2023-02-15T21:20:38;22.30;;;8.95;;
32172;SDS011;18679;45.190;5.722;2023-02-15T21:23:43;20.73;;;7.70;;
32172;SDS011;18679;45.190;5.722;2023-02-15T21:26:45;20.17;;;8.45;;